SIA33 KSFO-WSSS
Flight info
| Callsign | SIA33 |
|---|---|
| Flight time | N/A |
| Altitude | 34000 |
| Route | GNNRR3 GNNRR DCT ALCOA DCT 39N140W 40N150W 40N160W/N0497F360 35N170W 31N180E/N0487F380 28N170E 25N160E 21N150E/N0486F400 17N140E DCT ENDAX P515 TOKON M767 TOMAN KARTO2B |
| Aircraft | A359/H-SDE2E3GHIJ3J4J5LM1ORWXY/LB1D1 |
Departure
| Time | 2026-05-06 05:31 |
|---|---|
| Airport | San Francisco International Airport (KSFO) |
Arrival
| Time | N/A |
|---|---|
| Airport | Singapore Changi Airport (WSSS) |
| Time | Latitude | Longitude | Altitude | Speed | Heading |
|---|---|---|---|---|---|
| 2026-05-06 04:31 | 37.61381 | -122.38755 | 23 ft | 0 kts | 322° |
| 2026-05-06 05:16 | 37.61361 | -122.38738 | 21 ft | 4 kts | 334° |
| 2026-05-06 05:16 | 37.61336 | -122.38728 | 24 ft | 4 kts | 355° |
| 2026-05-06 05:17 | 37.61310 | -122.38731 | 25 ft | 4 kts | 22° |
| 2026-05-06 05:17 | 37.61287 | -122.38748 | 25 ft | 4 kts | 41° |
| 2026-05-06 05:17 | 37.61270 | -122.38768 | 29 ft | 4 kts | 39° |
| 2026-05-06 05:17 | 37.61253 | -122.38781 | 29 ft | 4 kts | 332° |
| 2026-05-06 05:18 | 37.61238 | -122.38765 | 29 ft | 4 kts | 266° |
| 2026-05-06 05:18 | 37.61250 | -122.38749 | 30 ft | 4 kts | 205° |
| 2026-05-06 05:18 | 37.61274 | -122.38736 | 29 ft | 4 kts | 191° |
| 2026-05-06 05:18 | 37.61301 | -122.38734 | 25 ft | 4 kts | 174° |
| 2026-05-06 05:19 | 37.61325 | -122.38734 | 23 ft | 2 kts | 204° |
| 2026-05-06 05:19 | 37.61328 | -122.38734 | 23 ft | 0 kts | 204° |
| 2026-05-06 05:19 | 37.61328 | -122.38735 | 23 ft | 0 kts | 204° |
| 2026-05-06 05:22 | 37.61318 | -122.38740 | 24 ft | 7 kts | 202° |
| 2026-05-06 05:22 | 37.61237 | -122.38780 | 30 ft | 19 kts | 197° |
| 2026-05-06 05:22 | 37.61169 | -122.38804 | 27 ft | 0 kts | 202° |
| 2026-05-06 05:23 | 37.61128 | -122.38828 | 25 ft | 12 kts | 210° |
| 2026-05-06 05:23 | 37.61035 | -122.38895 | 26 ft | 16 kts | 210° |
| 2026-05-06 05:23 | 37.60911 | -122.38841 | 23 ft | 19 kts | 131° |
| 2026-05-06 05:24 | 37.60834 | -122.38668 | 24 ft | 23 kts | 128° |
| 2026-05-06 05:24 | 37.60794 | -122.38568 | 27 ft | 0 kts | 109° |
| 2026-05-06 05:24 | 37.60804 | -122.38526 | 28 ft | 10 kts | 42° |
| 2026-05-06 05:25 | 37.60910 | -122.38487 | 28 ft | 20 kts | 16° |
| 2026-05-06 05:25 | 37.61036 | -122.38384 | 26 ft | 22 kts | 33° |
| 2026-05-06 05:25 | 37.61169 | -122.38293 | 29 ft | 21 kts | 27° |
| 2026-05-06 05:25 | 37.61302 | -122.38205 | 25 ft | 22 kts | 31° |
| 2026-05-06 05:26 | 37.61318 | -122.38193 | 23 ft | 3 kts | 29° |
| 2026-05-06 05:26 | 37.61381 | -122.38146 | 25 ft | 13 kts | 44° |
| 2026-05-06 05:26 | 37.61382 | -122.38037 | 25 ft | 17 kts | 114° |
| 2026-05-06 05:26 | 37.61310 | -122.37856 | 23 ft | 25 kts | 118° |
| 2026-05-06 05:27 | 37.61239 | -122.37668 | 25 ft | 23 kts | 102° |
| 2026-05-06 05:27 | 37.61274 | -122.37494 | 26 ft | 19 kts | 45° |
| 2026-05-06 05:27 | 37.61381 | -122.37420 | 28 ft | 16 kts | 21° |
| 2026-05-06 05:27 | 37.61468 | -122.37355 | 28 ft | 14 kts | 34° |
| 2026-05-06 05:28 | 37.61531 | -122.37273 | 29 ft | 12 kts | 53° |
| 2026-05-06 05:28 | 37.61554 | -122.37146 | 28 ft | 21 kts | 100° |
| 2026-05-06 05:28 | 37.61486 | -122.36965 | 29 ft | 23 kts | 128° |
| 2026-05-06 05:28 | 37.61368 | -122.36775 | 30 ft | 30 kts | 124° |
| 2026-05-06 05:29 | 37.61268 | -122.36553 | 24 ft | 29 kts | 119° |
| 2026-05-06 05:29 | 37.61178 | -122.36335 | 26 ft | 27 kts | 118° |
| 2026-05-06 05:29 | 37.61092 | -122.36130 | 27 ft | 26 kts | 118° |
| 2026-05-06 05:29 | 37.61083 | -122.35942 | 27 ft | 21 kts | 55° |
| 2026-05-06 05:30 | 37.61192 | -122.35907 | 30 ft | 14 kts | 314° |
| 2026-05-06 05:30 | 37.61204 | -122.35933 | 28 ft | 0 kts | 295° |
| 2026-05-06 05:30 | 37.61309 | -122.36179 | 22 ft | 70 kts | 298° |
| 2026-05-06 05:30 | 37.61645 | -122.36988 | 27 ft | 136 kts | 298° |
| 2026-05-06 05:31 | 37.62126 | -122.38181 | 140 ft | 162 kts | 288° |
| 2026-05-06 05:31 | 37.62588 | -122.39440 | 830 ft | 163 kts | 291° |
| 2026-05-06 05:31 | 37.63095 | -122.40868 | 1217 ft | 186 kts | 281° |
| 2026-05-06 05:31 | 37.63551 | -122.42411 | 1898 ft | 193 kts | 280° |
| 2026-05-06 05:32 | 37.64054 | -122.44043 | 2089 ft | 206 kts | 283° |
| 2026-05-06 05:32 | 37.64683 | -122.45718 | 2253 ft | 219 kts | 288° |
| 2026-05-06 05:32 | 37.65402 | -122.47454 | 2468 ft | 230 kts | 295° |
| 2026-05-06 05:32 | 37.66362 | -122.49213 | 2530 ft | 255 kts | 306° |
| 2026-05-06 05:33 | 37.67314 | -122.51083 | 3132 ft | 248 kts | 281° |
| 2026-05-06 05:33 | 37.67794 | -122.53225 | 3445 ft | 258 kts | 275° |
| 2026-05-06 05:33 | 37.67885 | -122.55490 | 3774 ft | 260 kts | 252° |
| 2026-05-06 05:33 | 37.67627 | -122.57778 | 3918 ft | 271 kts | 252° |
| 2026-05-06 05:34 | 37.67342 | -122.60157 | 4259 ft | 274 kts | 254° |
| 2026-05-06 05:34 | 37.67195 | -122.62541 | 4675 ft | 275 kts | 260° |
| 2026-05-06 05:34 | 37.67224 | -122.64956 | 5124 ft | 274 kts | 265° |
| 2026-05-06 05:34 | 37.67338 | -122.67369 | 5493 ft | 277 kts | 268° |
| 2026-05-06 05:35 | 37.67490 | -122.69814 | 5900 ft | 279 kts | 270° |
| 2026-05-06 05:35 | 37.67705 | -122.72218 | 6370 ft | 280 kts | 274° |
| 2026-05-06 05:35 | 37.67905 | -122.74674 | 6722 ft | 284 kts | 267° |
| 2026-05-06 05:35 | 37.68075 | -122.77184 | 7099 ft | 286 kts | 271° |
| 2026-05-06 05:36 | 37.68257 | -122.79690 | 7520 ft | 289 kts | 268° |
| 2026-05-06 05:36 | 37.68411 | -122.82227 | 7924 ft | 293 kts | 266° |
| 2026-05-06 05:36 | 37.68538 | -122.84812 | 8331 ft | 296 kts | 268° |
| 2026-05-06 05:36 | 37.68711 | -122.87404 | 8811 ft | 297 kts | 269° |
| 2026-05-06 05:37 | 37.68868 | -122.90000 | 9211 ft | 300 kts | 268° |
| 2026-05-06 05:37 | 37.69005 | -122.92646 | 9608 ft | 302 kts | 270° |
| 2026-05-06 05:37 | 37.69209 | -122.95305 | 10131 ft | 304 kts | 273° |
| 2026-05-06 05:37 | 37.69456 | -122.97967 | 10361 ft | 315 kts | 276° |
| 2026-05-06 05:38 | 37.69733 | -123.00787 | 10552 ft | 327 kts | 274° |
| 2026-05-06 05:38 | 37.69961 | -123.03706 | 10766 ft | 339 kts | 268° |
| 2026-05-06 05:38 | 37.70062 | -123.06722 | 10914 ft | 350 kts | 267° |
| 2026-05-06 05:38 | 37.70136 | -123.09811 | 11040 ft | 361 kts | 268° |
| 2026-05-06 05:39 | 37.70259 | -123.13072 | 11175 ft | 373 kts | 271° |
| 2026-05-06 05:39 | 37.70464 | -123.16344 | 11334 ft | 383 kts | 274° |
| 2026-05-06 05:39 | 37.70744 | -123.19718 | 11612 ft | 389 kts | 275° |
| 2026-05-06 05:39 | 37.71053 | -123.23135 | 11986 ft | 393 kts | 276° |
| 2026-05-06 05:40 | 37.71346 | -123.26579 | 12380 ft | 396 kts | 275° |
| 2026-05-06 05:40 | 37.71606 | -123.30040 | 12751 ft | 400 kts | 274° |
| 2026-05-06 05:40 | 37.71837 | -123.33554 | 13162 ft | 403 kts | 274° |
| 2026-05-06 05:40 | 37.72046 | -123.37093 | 13540 ft | 405 kts | 273° |
| 2026-05-06 05:41 | 37.72242 | -123.40663 | 13926 ft | 408 kts | 273° |
| 2026-05-06 05:41 | 37.72431 | -123.44235 | 14276 ft | 410 kts | 273° |
| 2026-05-06 05:41 | 37.72617 | -123.47815 | 14618 ft | 412 kts | 273° |
| 2026-05-06 05:41 | 37.72807 | -123.51470 | 14966 ft | 414 kts | 273° |
| 2026-05-06 05:42 | 37.72996 | -123.55109 | 15301 ft | 416 kts | 273° |
| 2026-05-06 05:42 | 37.73183 | -123.58715 | 15629 ft | 418 kts | 273° |
| 2026-05-06 05:42 | 37.73374 | -123.62392 | 15973 ft | 420 kts | 273° |
| 2026-05-06 05:42 | 37.73565 | -123.66079 | 16305 ft | 421 kts | 273° |
| 2026-05-06 05:43 | 37.73756 | -123.69795 | 16623 ft | 423 kts | 273° |
| 2026-05-06 05:43 | 37.73946 | -123.73519 | 16954 ft | 425 kts | 273° |
| 2026-05-06 05:43 | 37.74137 | -123.77268 | 17279 ft | 428 kts | 273° |
| 2026-05-06 05:43 | 37.74326 | -123.81021 | 17594 ft | 430 kts | 273° |
| 2026-05-06 05:44 | 37.74514 | -123.84754 | 17904 ft | 432 kts | 273° |
| 2026-05-06 05:44 | 37.74703 | -123.88554 | 18236 ft | 434 kts | 273° |
| 2026-05-06 05:44 | 37.74892 | -123.92373 | 18541 ft | 436 kts | 273° |
| 2026-05-06 05:44 | 37.75081 | -123.96212 | 18800 ft | 438 kts | 273° |
| 2026-05-06 05:45 | 37.75270 | -124.00055 | 19090 ft | 440 kts | 273° |
| 2026-05-06 05:45 | 37.75460 | -124.03942 | 19380 ft | 442 kts | 273° |
| 2026-05-06 05:45 | 37.75648 | -124.07819 | 19689 ft | 443 kts | 273° |
| 2026-05-06 05:45 | 37.75834 | -124.11680 | 19984 ft | 445 kts | 273° |
| 2026-05-06 05:46 | 37.76022 | -124.15593 | 20294 ft | 446 kts | 273° |
| 2026-05-06 05:46 | 37.76210 | -124.19528 | 20595 ft | 448 kts | 273° |
| 2026-05-06 05:46 | 37.76394 | -124.23468 | 20876 ft | 450 kts | 273° |
| 2026-05-06 05:46 | 37.76576 | -124.27421 | 21187 ft | 451 kts | 273° |
| 2026-05-06 05:47 | 37.76758 | -124.31401 | 21486 ft | 453 kts | 273° |
| 2026-05-06 05:47 | 37.76940 | -124.35382 | 21790 ft | 455 kts | 273° |
| 2026-05-06 05:47 | 37.77120 | -124.39333 | 22092 ft | 457 kts | 273° |
| 2026-05-06 05:47 | 37.77301 | -124.43349 | 22401 ft | 458 kts | 273° |
| 2026-05-06 05:48 | 37.77482 | -124.47384 | 22705 ft | 460 kts | 273° |
| 2026-05-06 05:48 | 37.77662 | -124.51435 | 23005 ft | 462 kts | 273° |
| 2026-05-06 05:48 | 37.77840 | -124.55502 | 23339 ft | 464 kts | 273° |
| 2026-05-06 05:48 | 37.78018 | -124.59583 | 23646 ft | 466 kts | 273° |
| 2026-05-06 05:49 | 37.78195 | -124.63674 | 23927 ft | 467 kts | 273° |
| 2026-05-06 05:49 | 37.78374 | -124.67781 | 24203 ft | 469 kts | 273° |
| 2026-05-06 05:49 | 37.78564 | -124.71902 | 24478 ft | 471 kts | 273° |
| 2026-05-06 05:49 | 37.78744 | -124.76039 | 24743 ft | 472 kts | 273° |
| 2026-05-06 05:50 | 37.78914 | -124.80163 | 25010 ft | 474 kts | 272° |
| 2026-05-06 05:50 | 37.79082 | -124.84333 | 25284 ft | 476 kts | 272° |
| 2026-05-06 05:50 | 37.79250 | -124.88506 | 25547 ft | 477 kts | 272° |
| 2026-05-06 05:50 | 37.79419 | -124.92718 | 25808 ft | 479 kts | 272° |
| 2026-05-06 05:51 | 37.79588 | -124.96929 | 26066 ft | 480 kts | 272° |
| 2026-05-06 05:51 | 37.79757 | -125.01158 | 26321 ft | 482 kts | 272° |
| 2026-05-06 05:51 | 37.79927 | -125.05407 | 26590 ft | 483 kts | 272° |
| 2026-05-06 05:51 | 37.80095 | -125.09649 | 26824 ft | 485 kts | 272° |
| 2026-05-06 05:52 | 37.80262 | -125.13922 | 27054 ft | 486 kts | 272° |
| 2026-05-06 05:52 | 37.80428 | -125.18195 | 27308 ft | 487 kts | 272° |
| 2026-05-06 05:52 | 37.80593 | -125.22488 | 27548 ft | 489 kts | 272° |
| 2026-05-06 05:52 | 37.80755 | -125.26737 | 27753 ft | 490 kts | 272° |
| 2026-05-06 05:53 | 37.80942 | -125.31060 | 28015 ft | 491 kts | 274° |
| 2026-05-06 05:53 | 37.81151 | -125.35384 | 28259 ft | 493 kts | 274° |
| 2026-05-06 05:53 | 37.81286 | -125.38258 | 28413 ft | 494 kts | 274° |
| 2026-05-06 05:53 | 37.81484 | -125.42614 | 28647 ft | 496 kts | 273° |
| 2026-05-06 05:54 | 37.81666 | -125.46971 | 28857 ft | 497 kts | 274° |
| 2026-05-06 05:54 | 37.81903 | -125.52778 | 29174 ft | 499 kts | 273° |
| 2026-05-06 05:54 | 37.82020 | -125.55739 | 29318 ft | 500 kts | 273° |
| 2026-05-06 05:54 | 37.82172 | -125.60090 | 29508 ft | 501 kts | 272° |
| 2026-05-06 05:55 | 37.82320 | -125.64507 | 29698 ft | 503 kts | 272° |
| 2026-05-06 05:55 | 37.82456 | -125.68927 | 29940 ft | 503 kts | 272° |
| 2026-05-06 05:55 | 37.82565 | -125.73341 | 30169 ft | 503 kts | 271° |
| 2026-05-06 05:55 | 37.82658 | -125.77771 | 30341 ft | 503 kts | 270° |
| 2026-05-06 05:56 | 37.82792 | -125.82191 | 30446 ft | 503 kts | 274° |
| 2026-05-06 05:56 | 37.83243 | -125.86526 | 30612 ft | 500 kts | 278° |
| 2026-05-06 05:56 | 37.83796 | -125.90861 | 30858 ft | 498 kts | 278° |
| 2026-05-06 05:56 | 37.84373 | -125.95182 | 30979 ft | 499 kts | 278° |
| 2026-05-06 05:57 | 37.84974 | -125.99516 | 31104 ft | 499 kts | 280° |
| 2026-05-06 05:57 | 37.85604 | -126.03827 | 31293 ft | 498 kts | 281° |
| 2026-05-06 05:57 | 37.86258 | -126.08124 | 31481 ft | 497 kts | 280° |
| 2026-05-06 05:57 | 37.86906 | -126.12435 | 31623 ft | 497 kts | 280° |
| 2026-05-06 05:58 | 37.87541 | -126.16735 | 31763 ft | 497 kts | 281° |
| 2026-05-06 05:58 | 37.88173 | -126.21040 | 31916 ft | 497 kts | 278° |
| 2026-05-06 05:58 | 37.89326 | -126.29687 | 32111 ft | 498 kts | 279° |
| 2026-05-06 05:59 | 37.89923 | -126.33954 | 32282 ft | 497 kts | 280° |
| 2026-05-06 05:59 | 37.90535 | -126.38255 | 32405 ft | 497 kts | 278° |
| 2026-05-06 05:59 | 37.91744 | -126.46867 | 32647 ft | 497 kts | 279° |
| 2026-05-06 06:00 | 37.92354 | -126.51166 | 32759 ft | 496 kts | 279° |
| 2026-05-06 06:00 | 37.92937 | -126.55492 | 32841 ft | 497 kts | 276° |
| 2026-05-06 06:00 | 37.93978 | -126.64170 | 32839 ft | 499 kts | 278° |
| 2026-05-06 06:01 | 37.94565 | -126.68488 | 33031 ft | 496 kts | 279° |
| 2026-05-06 06:01 | 37.95195 | -126.72789 | 33186 ft | 495 kts | 280° |
| 2026-05-06 06:01 | 37.95835 | -126.77075 | 33292 ft | 495 kts | 279° |
| 2026-05-06 06:01 | 37.96465 | -126.81364 | 33392 ft | 495 kts | 279° |
| 2026-05-06 06:02 | 37.97083 | -126.85661 | 33494 ft | 495 kts | 280° |
| 2026-05-06 06:02 | 37.97692 | -126.89903 | 33615 ft | 495 kts | 279° |
| 2026-05-06 06:02 | 37.98299 | -126.94206 | 33740 ft | 495 kts | 279° |
| 2026-05-06 06:02 | 37.98892 | -126.98498 | 33836 ft | 495 kts | 279° |
| 2026-05-06 06:03 | 38.00051 | -127.07091 | 34040 ft | 495 kts | 279° |
| 2026-05-06 06:03 | 38.01173 | -127.15700 | 34189 ft | 495 kts | 277° |
| 2026-05-06 06:04 | 38.02209 | -127.24336 | 34213 ft | 496 kts | 276° |
| 2026-05-06 06:04 | 38.03266 | -127.32974 | 34329 ft | 494 kts | 278° |
| 2026-05-06 06:05 | 38.03862 | -127.37262 | 34439 ft | 493 kts | 279° |
| 2026-05-06 06:05 | 38.04481 | -127.41542 | 34518 ft | 493 kts | 279° |
| 2026-05-06 06:05 | 38.05690 | -127.50043 | 34653 ft | 493 kts | 279° |
| 2026-05-06 06:06 | 38.06275 | -127.54329 | 34760 ft | 492 kts | 279° |
| 2026-05-06 06:06 | 38.06844 | -127.58619 | 34827 ft | 492 kts | 278° |
| 2026-05-06 06:06 | 38.07951 | -127.67192 | 34951 ft | 492 kts | 278° |
| 2026-05-06 06:07 | 38.09045 | -127.75789 | 35068 ft | 492 kts | 278° |
| 2026-05-06 06:07 | 38.10131 | -127.84349 | 35193 ft | 491 kts | 278° |
| 2026-05-06 06:08 | 38.11227 | -127.92871 | 35325 ft | 491 kts | 278° |
| 2026-05-06 06:08 | 38.12303 | -128.01441 | 35421 ft | 491 kts | 277° |
| 2026-05-06 06:09 | 38.13358 | -128.10024 | 35513 ft | 491 kts | 277° |
| 2026-05-06 06:09 | 38.14374 | -128.18613 | 35530 ft | 492 kts | 276° |
| 2026-05-06 06:10 | 38.15333 | -128.27216 | 35540 ft | 491 kts | 275° |
| 2026-05-06 06:10 | 38.16304 | -128.35758 | 35530 ft | 491 kts | 276° |
| 2026-05-06 06:11 | 38.17357 | -128.44348 | 35566 ft | 490 kts | 277° |
| 2026-05-06 06:11 | 38.18474 | -128.52915 | 35667 ft | 490 kts | 278° |
| 2026-05-06 06:12 | 38.19588 | -128.61404 | 35746 ft | 489 kts | 277° |
| 2026-05-06 06:12 | 38.20649 | -128.69948 | 35836 ft | 489 kts | 277° |
| 2026-05-06 06:13 | 38.21669 | -128.78509 | 35896 ft | 489 kts | 277° |
| 2026-05-06 06:13 | 38.22675 | -128.87070 | 35958 ft | 489 kts | 277° |
| 2026-05-06 06:14 | 38.23680 | -128.95633 | 36041 ft | 489 kts | 277° |
| 2026-05-06 06:14 | 38.24709 | -129.04112 | 36168 ft | 487 kts | 278° |
| 2026-05-06 06:15 | 38.25726 | -129.12640 | 36241 ft | 487 kts | 277° |
| 2026-05-06 06:15 | 38.26716 | -129.21176 | 36307 ft | 487 kts | 277° |
| 2026-05-06 06:16 | 38.27686 | -129.29679 | 36359 ft | 488 kts | 277° |
| 2026-05-06 06:16 | 38.28655 | -129.38222 | 36485 ft | 486 kts | 277° |
| 2026-05-06 06:17 | 38.29614 | -129.46717 | 36570 ft | 485 kts | 276° |
| 2026-05-06 06:17 | 38.30527 | -129.55239 | 36548 ft | 486 kts | 275° |
| 2026-05-06 06:18 | 38.31362 | -129.63762 | 36457 ft | 487 kts | 273° |
| 2026-05-06 06:18 | 38.32190 | -129.72329 | 36408 ft | 487 kts | 274° |
| 2026-05-06 06:19 | 38.33116 | -129.80865 | 36432 ft | 485 kts | 275° |
| 2026-05-06 06:19 | 38.34086 | -129.89398 | 36424 ft | 485 kts | 277° |
| 2026-05-06 06:20 | 38.35102 | -129.97848 | 36482 ft | 485 kts | 276° |
| 2026-05-06 06:20 | 38.36076 | -130.06359 | 36512 ft | 485 kts | 276° |
| 2026-05-06 06:21 | 38.36996 | -130.14878 | 36537 ft | 485 kts | 275° |
| 2026-05-06 06:21 | 38.37917 | -130.23409 | 36586 ft | 484 kts | 275° |
| 2026-05-06 06:22 | 38.38820 | -130.31862 | 36626 ft | 484 kts | 275° |
| 2026-05-06 06:22 | 38.39712 | -130.40379 | 36665 ft | 484 kts | 275° |
| 2026-05-06 06:23 | 38.40596 | -130.48897 | 36715 ft | 484 kts | 275° |
| 2026-05-06 06:23 | 38.41474 | -130.57419 | 36775 ft | 483 kts | 274° |
| 2026-05-06 06:24 | 38.42339 | -130.65877 | 36786 ft | 484 kts | 274° |
| 2026-05-06 06:24 | 38.43203 | -130.74400 | 36800 ft | 484 kts | 274° |
| 2026-05-06 06:25 | 38.44061 | -130.82923 | 36843 ft | 484 kts | 274° |
| 2026-05-06 06:26 | 38.45180 | -130.95721 | 36648 ft | 485 kts | 272° |
| 2026-05-06 06:26 | 38.46052 | -131.04187 | 36811 ft | 482 kts | 272° |
| 2026-05-06 06:27 | 38.46846 | -131.12700 | 36629 ft | 484 kts | 270° |
| 2026-05-06 06:27 | 38.47702 | -131.21241 | 36726 ft | 482 kts | 270° |
| 2026-05-06 06:28 | 38.48441 | -131.29733 | 36551 ft | 483 kts | 270° |
| 2026-05-06 06:28 | 38.49304 | -131.38221 | 36696 ft | 481 kts | 275° |
| 2026-05-06 06:29 | 38.50292 | -131.46683 | 36737 ft | 482 kts | 273° |
| 2026-05-06 06:29 | 38.51096 | -131.55183 | 36737 ft | 482 kts | 271° |
| 2026-05-06 06:30 | 38.51867 | -131.63665 | 36835 ft | 480 kts | 273° |
| 2026-05-06 06:30 | 38.52672 | -131.72088 | 36866 ft | 481 kts | 273° |
| 2026-05-06 06:31 | 38.53477 | -131.80591 | 36911 ft | 481 kts | 273° |
| 2026-05-06 06:31 | 38.54258 | -131.89067 | 36975 ft | 480 kts | 272° |
| 2026-05-06 06:32 | 38.55027 | -131.97561 | 36995 ft | 480 kts | 272° |
| 2026-05-06 06:32 | 38.55789 | -132.06026 | 37106 ft | 478 kts | 272° |
| 2026-05-06 06:33 | 38.56539 | -132.14418 | 37173 ft | 478 kts | 272° |
| 2026-05-06 06:33 | 38.57285 | -132.22861 | 37160 ft | 478 kts | 272° |
| 2026-05-06 06:34 | 38.58029 | -132.31349 | 37173 ft | 479 kts | 271° |
| 2026-05-06 06:34 | 38.58760 | -132.39742 | 37304 ft | 476 kts | 272° |
| 2026-05-06 06:35 | 38.59487 | -132.48166 | 37280 ft | 477 kts | 272° |
| 2026-05-06 06:35 | 38.60207 | -132.56604 | 37284 ft | 477 kts | 272° |
| 2026-05-06 06:36 | 38.60923 | -132.65016 | 37396 ft | 475 kts | 272° |
| 2026-05-06 06:36 | 38.61626 | -132.73388 | 37397 ft | 475 kts | 272° |
| 2026-05-06 06:37 | 38.62322 | -132.81752 | 37396 ft | 475 kts | 272° |
| 2026-05-06 06:37 | 38.63015 | -132.90136 | 37454 ft | 474 kts | 272° |
| 2026-05-06 06:38 | 38.63702 | -132.98517 | 37464 ft | 474 kts | 272° |
| 2026-05-06 06:38 | 38.64382 | -133.06930 | 37396 ft | 475 kts | 272° |
| 2026-05-06 06:38 | 38.64720 | -133.11123 | 37586 ft | 471 kts | 273° |
| 2026-05-06 06:39 | 38.65051 | -133.15242 | 37719 ft | 468 kts | 273° |
| 2026-05-06 06:39 | 38.65714 | -133.23532 | 37663 ft | 470 kts | 273° |
| 2026-05-06 06:40 | 38.66373 | -133.31863 | 37535 ft | 473 kts | 273° |
| 2026-05-06 06:40 | 38.66917 | -133.38815 | 37650 ft | 470 kts | 272° |
| 2026-05-06 06:41 | 38.67561 | -133.47103 | 37741 ft | 468 kts | 272° |
| 2026-05-06 06:41 | 38.68304 | -133.56783 | 37579 ft | 471 kts | 272° |
| 2026-05-06 06:42 | 38.68832 | -133.63716 | 37656 ft | 469 kts | 272° |
| 2026-05-06 06:42 | 38.69459 | -133.72010 | 37740 ft | 467 kts | 272° |
| 2026-05-06 06:42 | 38.69770 | -133.76162 | 37635 ft | 469 kts | 272° |
| 2026-05-06 06:43 | 38.70081 | -133.80339 | 37564 ft | 471 kts | 272° |
| 2026-05-06 06:43 | 38.70698 | -133.88682 | 37675 ft | 468 kts | 272° |
| 2026-05-06 06:44 | 38.71308 | -133.96979 | 37735 ft | 467 kts | 272° |
| 2026-05-06 06:44 | 38.71907 | -134.05242 | 37691 ft | 468 kts | 272° |
| 2026-05-06 06:45 | 38.72504 | -134.13536 | 37728 ft | 467 kts | 272° |
| 2026-05-06 06:45 | 38.73093 | -134.21804 | 37748 ft | 466 kts | 272° |
| 2026-05-06 06:46 | 38.73676 | -134.30092 | 37728 ft | 467 kts | 272° |
| 2026-05-06 06:46 | 38.74254 | -134.38384 | 37728 ft | 467 kts | 272° |
| 2026-05-06 06:47 | 38.74822 | -134.46594 | 37765 ft | 466 kts | 272° |
| 2026-05-06 06:47 | 38.75406 | -134.54892 | 37691 ft | 467 kts | 273° |
| 2026-05-06 06:48 | 38.76026 | -134.63175 | 37700 ft | 466 kts | 274° |
| 2026-05-06 06:48 | 38.76704 | -134.71427 | 37837 ft | 463 kts | 275° |
| 2026-05-06 06:49 | 38.77442 | -134.79577 | 37821 ft | 463 kts | 275° |
| 2026-05-06 06:49 | 38.78249 | -134.87806 | 37697 ft | 466 kts | 276° |
| 2026-05-06 06:50 | 38.79131 | -134.96035 | 37714 ft | 465 kts | 276° |
| 2026-05-06 06:50 | 38.80093 | -135.04168 | 37844 ft | 462 kts | 277° |
| 2026-05-06 06:51 | 38.81131 | -135.12281 | 37863 ft | 461 kts | 278° |
| 2026-05-06 06:51 | 38.82248 | -135.20403 | 37759 ft | 463 kts | 279° |
| 2026-05-06 06:52 | 38.83459 | -135.28517 | 37746 ft | 463 kts | 279° |
| 2026-05-06 06:52 | 38.84788 | -135.36596 | 37805 ft | 461 kts | 281° |
| 2026-05-06 06:53 | 38.86220 | -135.44565 | 37782 ft | 461 kts | 282° |
| 2026-05-06 06:53 | 38.87770 | -135.52564 | 37714 ft | 462 kts | 283° |
| 2026-05-06 06:54 | 38.89437 | -135.60531 | 37744 ft | 461 kts | 284° |
| 2026-05-06 06:54 | 38.91221 | -135.68440 | 37765 ft | 460 kts | 285° |
| 2026-05-06 06:55 | 38.93104 | -135.76258 | 37708 ft | 461 kts | 286° |
| 2026-05-06 06:55 | 38.95119 | -135.84081 | 37691 ft | 461 kts | 287° |
| 2026-05-06 06:56 | 38.97274 | -135.91824 | 37734 ft | 460 kts | 289° |
| 2026-05-06 06:56 | 38.99586 | -135.99515 | 37713 ft | 460 kts | 290° |
| 2026-05-06 06:57 | 39.02046 | -136.07115 | 37665 ft | 460 kts | 291° |
| 2026-05-06 06:57 | 39.04664 | -136.14590 | 37679 ft | 460 kts | 293° |
| 2026-05-06 06:58 | 39.07476 | -136.21984 | 37701 ft | 459 kts | 295° |
| 2026-05-06 06:58 | 39.10448 | -136.29205 | 37650 ft | 460 kts | 297° |
| 2026-05-06 06:59 | 39.13634 | -136.36366 | 37624 ft | 460 kts | 298° |
| 2026-05-06 06:59 | 39.17019 | -136.43359 | 37677 ft | 458 kts | 301° |
| 2026-05-06 07:00 | 39.20608 | -136.50105 | 37676 ft | 458 kts | 303° |
| 2026-05-06 07:00 | 39.24476 | -136.56651 | 37610 ft | 460 kts | 306° |
| 2026-05-06 07:01 | 39.28637 | -136.62933 | 37643 ft | 459 kts | 309° |
| 2026-05-06 07:01 | 39.33065 | -136.68883 | 37639 ft | 459 kts | 312° |
| 2026-05-06 07:02 | 39.37716 | -136.74477 | 37593 ft | 460 kts | 315° |
| 2026-05-06 07:02 | 39.42643 | -136.79771 | 37607 ft | 460 kts | 319° |
| 2026-05-06 07:03 | 39.47805 | -136.84690 | 37601 ft | 460 kts | 322° |
| 2026-05-06 07:03 | 39.53195 | -136.89220 | 37580 ft | 461 kts | 325° |
| 2026-05-06 07:04 | 39.58779 | -136.93337 | 37586 ft | 462 kts | 328° |
| 2026-05-06 07:04 | 39.64511 | -136.97015 | 37582 ft | 462 kts | 332° |
| 2026-05-06 07:05 | 39.70436 | -137.00282 | 37583 ft | 463 kts | 335° |
| 2026-05-06 07:05 | 39.76520 | -137.03098 | 37600 ft | 463 kts | 338° |
| 2026-05-06 07:06 | 39.82665 | -137.05394 | 37607 ft | 463 kts | 342° |
| 2026-05-06 07:06 | 39.88973 | -137.07199 | 37597 ft | 464 kts | 345° |
| 2026-05-06 07:07 | 39.95374 | -137.08477 | 37596 ft | 465 kts | 349° |
| 2026-05-06 07:07 | 40.01847 | -137.09207 | 37534 ft | 467 kts | 352° |
| 2026-05-06 07:08 | 40.08357 | -137.09369 | 37599 ft | 467 kts | 356° |
| 2026-05-06 07:08 | 40.14799 | -137.08958 | 37657 ft | 466 kts | 0° |
| 2026-05-06 07:09 | 40.21265 | -137.08002 | 37620 ft | 468 kts | 3° |
| 2026-05-06 07:09 | 40.27697 | -137.06514 | 37612 ft | 469 kts | 7° |
| 2026-05-06 07:10 | 40.34059 | -137.04485 | 37679 ft | 469 kts | 10° |
| 2026-05-06 07:10 | 40.40305 | -137.01953 | 37662 ft | 470 kts | 14° |
| 2026-05-06 07:11 | 40.46416 | -136.98972 | 37592 ft | 473 kts | 17° |
| 2026-05-06 07:11 | 40.52480 | -136.95514 | 37487 ft | 476 kts | 20° |
| 2026-05-06 07:12 | 40.58415 | -136.91602 | 37550 ft | 476 kts | 23° |
| 2026-05-06 07:12 | 40.64133 | -136.87233 | 37676 ft | 475 kts | 26° |
| 2026-05-06 07:13 | 40.69621 | -136.82454 | 37642 ft | 477 kts | 30° |
| 2026-05-06 07:13 | 40.74992 | -136.77232 | 37546 ft | 480 kts | 32° |
| 2026-05-06 07:14 | 40.80138 | -136.71609 | 37606 ft | 480 kts | 36° |
| 2026-05-06 07:14 | 40.85015 | -136.65617 | 37689 ft | 479 kts | 39° |
| 2026-05-06 07:15 | 40.89670 | -136.59263 | 37646 ft | 482 kts | 42° |
| 2026-05-06 07:15 | 40.94079 | -136.52621 | 37492 ft | 486 kts | 45° |
| 2026-05-06 07:16 | 40.98288 | -136.45575 | 37482 ft | 487 kts | 48° |
| 2026-05-06 07:16 | 41.02195 | -136.38249 | 37645 ft | 485 kts | 51° |
| 2026-05-06 07:17 | 41.05764 | -136.30697 | 37640 ft | 487 kts | 54° |
| 2026-05-06 07:17 | 41.09095 | -136.22850 | 37530 ft | 490 kts | 56° |
| 2026-05-06 07:18 | 41.12167 | -136.14769 | 37584 ft | 490 kts | 59° |
| 2026-05-06 07:18 | 41.13574 | -136.10664 | 37738 ft | 487 kts | 61° |
| 2026-05-06 07:18 | 41.14888 | -136.06525 | 37864 ft | 484 kts | 62° |
| 2026-05-06 07:19 | 41.17266 | -135.98220 | 37819 ft | 487 kts | 65° |
| 2026-05-06 07:19 | 41.18384 | -135.93956 | 37672 ft | 490 kts | 66° |
| 2026-05-06 07:19 | 41.19450 | -135.89643 | 37567 ft | 492 kts | 67° |
| 2026-05-06 07:20 | 41.21384 | -135.80898 | 37683 ft | 490 kts | 70° |
| 2026-05-06 07:20 | 41.22221 | -135.76512 | 37825 ft | 488 kts | 71° |
| 2026-05-06 07:20 | 41.22972 | -135.72119 | 37881 ft | 487 kts | 72° |
| 2026-05-06 07:21 | 41.24266 | -135.63308 | 37746 ft | 491 kts | 75° |
| 2026-05-06 07:21 | 41.24833 | -135.58821 | 37631 ft | 494 kts | 76° |
| 2026-05-06 07:21 | 41.25341 | -135.54297 | 37578 ft | 495 kts | 77° |
| 2026-05-06 07:22 | 41.26139 | -135.45231 | 37764 ft | 491 kts | 79° |
| 2026-05-06 07:22 | 41.26416 | -135.40714 | 37881 ft | 489 kts | 81° |
| 2026-05-06 07:22 | 41.26616 | -135.36249 | 37942 ft | 488 kts | 82° |
| 2026-05-06 07:23 | 41.26805 | -135.27197 | 37871 ft | 490 kts | 84° |
| 2026-05-06 07:23 | 41.26710 | -135.18097 | 37739 ft | 493 kts | 87° |
| 2026-05-06 07:24 | 41.26306 | -135.08993 | 37785 ft | 493 kts | 90° |
| 2026-05-06 07:24 | 41.25576 | -135.00010 | 37878 ft | 491 kts | 92° |
| 2026-05-06 07:25 | 41.24544 | -134.91036 | 37825 ft | 493 kts | 95° |
| 2026-05-06 07:25 | 41.23225 | -134.82049 | 37738 ft | 495 kts | 97° |
| 2026-05-06 07:26 | 41.21609 | -134.73156 | 37777 ft | 494 kts | 100° |
| 2026-05-06 07:26 | 41.19686 | -134.64388 | 37823 ft | 494 kts | 102° |
| 2026-05-06 07:27 | 41.17863 | -134.57189 | 37746 ft | 496 kts | 105° |
| 2026-05-06 07:27 | 41.15386 | -134.48592 | 37660 ft | 498 kts | 107° |
| 2026-05-06 07:28 | 41.12610 | -134.40236 | 37731 ft | 497 kts | 110° |
| 2026-05-06 07:28 | 41.07823 | -134.27986 | 37735 ft | 498 kts | 115° |
| 2026-05-06 07:29 | 41.04368 | -134.20070 | 37672 ft | 499 kts | 117° |
| 2026-05-06 07:29 | 41.00637 | -134.12297 | 37690 ft | 499 kts | 120° |
| 2026-05-06 07:30 | 40.96637 | -134.04780 | 37713 ft | 498 kts | 123° |
| 2026-05-06 07:30 | 40.92423 | -133.97590 | 37786 ft | 496 kts | 126° |
| 2026-05-06 07:31 | 40.87910 | -133.90672 | 37715 ft | 498 kts | 129° |
| 2026-05-06 07:31 | 40.83121 | -133.84059 | 37644 ft | 498 kts | 133° |
| 2026-05-06 07:32 | 40.80648 | -133.80869 | 37772 ft | 495 kts | 135° |
| 2026-05-06 07:32 | 40.78131 | -133.77786 | 37855 ft | 492 kts | 136° |
| 2026-05-06 07:32 | 40.72934 | -133.71921 | 37834 ft | 492 kts | 140° |
| 2026-05-06 07:33 | 40.70226 | -133.69136 | 37722 ft | 494 kts | 141° |
| 2026-05-06 07:33 | 40.67450 | -133.66462 | 37686 ft | 494 kts | 143° |
| 2026-05-06 07:33 | 40.61738 | -133.61524 | 37844 ft | 488 kts | 147° |
| 2026-05-06 07:34 | 40.55883 | -133.57180 | 37930 ft | 485 kts | 151° |
| 2026-05-06 07:34 | 40.49768 | -133.53346 | 37778 ft | 487 kts | 155° |
| 2026-05-06 07:35 | 40.43490 | -133.50115 | 37716 ft | 486 kts | 160° |
| 2026-05-06 07:35 | 40.37008 | -133.47449 | 37769 ft | 484 kts | 163° |
| 2026-05-06 07:36 | 40.30492 | -133.45356 | 37826 ft | 481 kts | 167° |
| 2026-05-06 07:36 | 40.23904 | -133.43765 | 37778 ft | 481 kts | 170° |
| 2026-05-06 07:37 | 40.17279 | -133.42728 | 37691 ft | 482 kts | 174° |
| 2026-05-06 07:37 | 40.10593 | -133.42377 | 37680 ft | 480 kts | 179° |
| 2026-05-06 07:38 | 40.03925 | -133.42609 | 37757 ft | 477 kts | 181° |
| 2026-05-06 07:38 | 39.97309 | -133.43327 | 37761 ft | 476 kts | 185° |
| 2026-05-06 07:39 | 39.90723 | -133.44478 | 37629 ft | 478 kts | 187° |
| 2026-05-06 07:39 | 39.84205 | -133.45995 | 37619 ft | 478 kts | 189° |
| 2026-05-06 07:40 | 39.77734 | -133.47911 | 37707 ft | 475 kts | 192° |
| 2026-05-06 07:40 | 39.71342 | -133.50133 | 37640 ft | 476 kts | 194° |
| 2026-05-06 07:41 | 39.64988 | -133.52651 | 37530 ft | 478 kts | 197° |
| 2026-05-06 07:41 | 39.58755 | -133.55475 | 37622 ft | 475 kts | 199° |
| 2026-05-06 07:42 | 39.52621 | -133.58646 | 37651 ft | 474 kts | 201° |
| 2026-05-06 07:42 | 39.46584 | -133.62152 | 37511 ft | 476 kts | 204° |
| 2026-05-06 07:43 | 39.40655 | -133.66028 | 37502 ft | 476 kts | 206° |
| 2026-05-06 07:43 | 39.34967 | -133.70248 | 37597 ft | 473 kts | 210° |
| 2026-05-06 07:44 | 39.29412 | -133.74825 | 37581 ft | 473 kts | 211° |
| 2026-05-06 07:44 | 39.23931 | -133.79579 | 37505 ft | 475 kts | 213° |
| 2026-05-06 07:45 | 39.18487 | -133.84433 | 37455 ft | 476 kts | 213° |
| 2026-05-06 07:45 | 39.13112 | -133.89418 | 37490 ft | 475 kts | 215° |
| 2026-05-06 07:46 | 39.07860 | -133.94559 | 37492 ft | 475 kts | 217° |
| 2026-05-06 07:46 | 39.02699 | -133.99821 | 37384 ft | 477 kts | 217° |
| 2026-05-06 07:47 | 38.97603 | -134.05256 | 37493 ft | 474 kts | 219° |
| 2026-05-06 07:47 | 38.92652 | -134.10834 | 37583 ft | 472 kts | 220° |
| 2026-05-06 07:48 | 38.87812 | -134.16576 | 37459 ft | 475 kts | 222° |
| 2026-05-06 07:48 | 38.83075 | -134.22508 | 37413 ft | 475 kts | 224° |
| 2026-05-06 07:49 | 38.78475 | -134.28611 | 37414 ft | 475 kts | 225° |
| 2026-05-06 07:49 | 38.74011 | -134.34871 | 37372 ft | 476 kts | 227° |
| 2026-05-06 07:50 | 38.69718 | -134.41254 | 37386 ft | 476 kts | 229° |
| 2026-05-06 07:50 | 38.65520 | -134.47811 | 37380 ft | 476 kts | 230° |
| 2026-05-06 07:51 | 38.61426 | -134.54490 | 37336 ft | 477 kts | 232° |
| 2026-05-06 07:51 | 38.57471 | -134.61294 | 37372 ft | 476 kts | 233° |
| 2026-05-06 07:52 | 38.53727 | -134.68190 | 37399 ft | 475 kts | 236° |
| 2026-05-06 07:52 | 38.50149 | -134.75296 | 37375 ft | 475 kts | 238° |
| 2026-05-06 07:53 | 38.46766 | -134.82559 | 37376 ft | 475 kts | 240° |
| 2026-05-06 07:53 | 38.43602 | -134.89939 | 37438 ft | 473 kts | 242° |
| 2026-05-06 07:54 | 38.40680 | -134.97394 | 37455 ft | 472 kts | 244° |
| 2026-05-06 07:54 | 38.37956 | -135.05021 | 37398 ft | 472 kts | 246° |
| 2026-05-06 07:55 | 38.35457 | -135.12758 | 37448 ft | 471 kts | 248° |
| 2026-05-06 07:55 | 38.33208 | -135.20583 | 37505 ft | 469 kts | 250° |
| 2026-05-06 07:56 | 38.31215 | -135.28499 | 37471 ft | 469 kts | 253° |
| 2026-05-06 07:56 | 38.29490 | -135.36458 | 37440 ft | 469 kts | 255° |
| 2026-05-06 07:57 | 38.28033 | -135.44534 | 37506 ft | 467 kts | 258° |
| 2026-05-06 07:57 | 38.26870 | -135.52660 | 37514 ft | 466 kts | 260° |
| 2026-05-06 07:58 | 38.25995 | -135.60844 | 37468 ft | 466 kts | 263° |
| 2026-05-06 07:58 | 38.25427 | -135.69003 | 37478 ft | 465 kts | 265° |
| 2026-05-06 07:59 | 38.25185 | -135.77215 | 37533 ft | 463 kts | 268° |
| 2026-05-06 07:59 | 38.25262 | -135.85413 | 37499 ft | 463 kts | 271° |
| 2026-05-06 08:00 | 38.25655 | -135.93562 | 37472 ft | 463 kts | 274° |
| 2026-05-06 08:00 | 38.26400 | -136.01682 | 37515 ft | 461 kts | 277° |
| 2026-05-06 08:01 | 38.27495 | -136.09709 | 37510 ft | 461 kts | 280° |
| 2026-05-06 08:01 | 38.28943 | -136.17663 | 37431 ft | 462 kts | 283° |
| 2026-05-06 08:02 | 38.30772 | -136.25511 | 37468 ft | 461 kts | 286° |
| 2026-05-06 08:02 | 38.32954 | -136.33163 | 37533 ft | 459 kts | 289° |
| 2026-05-06 08:03 | 38.35466 | -136.40645 | 37489 ft | 460 kts | 292° |
| 2026-05-06 08:03 | 38.38271 | -136.47920 | 37456 ft | 460 kts | 295° |
| 2026-05-06 08:04 | 38.41399 | -136.55036 | 37499 ft | 459 kts | 298° |
| 2026-05-06 08:04 | 38.44837 | -136.61913 | 37481 ft | 460 kts | 301° |
| 2026-05-06 08:05 | 38.48582 | -136.68550 | 37379 ft | 462 kts | 304° |
| 2026-05-06 08:05 | 38.52630 | -136.74924 | 37433 ft | 461 kts | 307° |
| 2026-05-06 08:06 | 38.56934 | -136.80921 | 37491 ft | 460 kts | 311° |
| 2026-05-06 08:06 | 38.61560 | -136.86618 | 37391 ft | 463 kts | 314° |
| 2026-05-06 08:07 | 38.66478 | -136.91978 | 37388 ft | 464 kts | 318° |
| 2026-05-06 08:07 | 38.71665 | -136.96870 | 37484 ft | 462 kts | 322° |
| 2026-05-06 08:08 | 38.77110 | -137.01284 | 37441 ft | 464 kts | 326° |
| 2026-05-06 08:08 | 38.82804 | -137.05245 | 37381 ft | 466 kts | 329° |
| 2026-05-06 08:09 | 38.88670 | -137.08690 | 37377 ft | 467 kts | 333° |
| 2026-05-06 08:09 | 38.94767 | -137.11631 | 37398 ft | 468 kts | 337° |
| 2026-05-06 08:10 | 39.01026 | -137.14026 | 37451 ft | 468 kts | 341° |
| 2026-05-06 08:10 | 39.07395 | -137.15862 | 37406 ft | 470 kts | 345° |
| 2026-05-06 08:11 | 39.13833 | -137.17147 | 37355 ft | 472 kts | 349° |
| 2026-05-06 08:11 | 39.20388 | -137.17870 | 37415 ft | 472 kts | 353° |
| 2026-05-06 08:12 | 39.26941 | -137.18067 | 37484 ft | 471 kts | 356° |
| 2026-05-06 08:12 | 39.33511 | -137.17765 | 37410 ft | 474 kts | 359° |
| 2026-05-06 08:13 | 39.40097 | -137.16942 | 37393 ft | 475 kts | 3° |
| 2026-05-06 08:13 | 39.46567 | -137.15553 | 37546 ft | 472 kts | 7° |
| 2026-05-06 08:14 | 39.52975 | -137.13576 | 37513 ft | 474 kts | 11° |
| 2026-05-06 08:14 | 39.58259 | -137.11512 | 37386 ft | 478 kts | 14° |
| 2026-05-06 08:15 | 39.65477 | -137.07969 | 37533 ft | 475 kts | 19° |
| 2026-05-06 08:15 | 39.70452 | -137.04951 | 37680 ft | 473 kts | 22° |
| 2026-05-06 08:16 | 39.76255 | -137.00824 | 37553 ft | 477 kts | 26° |
| 2026-05-06 08:16 | 39.79099 | -136.98559 | 37408 ft | 480 kts | 28° |
| 2026-05-06 08:16 | 39.81904 | -136.96157 | 37324 ft | 483 kts | 30° |
| 2026-05-06 08:17 | 39.87275 | -136.91011 | 37443 ft | 481 kts | 34° |
| 2026-05-06 08:17 | 39.89856 | -136.88241 | 37574 ft | 479 kts | 36° |
| 2026-05-06 08:17 | 39.92343 | -136.85364 | 37652 ft | 477 kts | 38° |
| 2026-05-06 08:18 | 39.97087 | -136.79285 | 37566 ft | 480 kts | 41° |
| 2026-05-06 08:18 | 40.01590 | -136.72775 | 37412 ft | 485 kts | 45° |
| 2026-05-06 08:19 | 40.05763 | -136.65931 | 37513 ft | 483 kts | 49° |
| 2026-05-06 08:19 | 40.07719 | -136.62371 | 37615 ft | 482 kts | 50° |
| 2026-05-06 08:19 | 40.09581 | -136.58737 | 37661 ft | 481 kts | 52° |
| 2026-05-06 08:20 | 40.13069 | -136.51236 | 37555 ft | 484 kts | 56° |
| 2026-05-06 08:20 | 40.16273 | -136.43438 | 37431 ft | 488 kts | 59° |
| 2026-05-06 08:21 | 40.19124 | -136.35459 | 37540 ft | 486 kts | 62° |
| 2026-05-06 08:21 | 40.21622 | -136.27244 | 37629 ft | 485 kts | 65° |
| 2026-05-06 08:22 | 40.23781 | -136.18857 | 37530 ft | 488 kts | 68° |
| 2026-05-06 08:22 | 40.25594 | -136.10266 | 37492 ft | 490 kts | 71° |
| 2026-05-06 08:23 | 40.27006 | -136.01547 | 37603 ft | 488 kts | 75° |
| 2026-05-06 08:23 | 40.28024 | -135.92750 | 37648 ft | 488 kts | 78° |
| 2026-05-06 08:24 | 40.28678 | -135.83951 | 37661 ft | 488 kts | 81° |
| 2026-05-06 08:24 | 40.28985 | -135.75039 | 37621 ft | 490 kts | 84° |
| 2026-05-06 08:25 | 40.28943 | -135.66154 | 37619 ft | 490 kts | 87° |
| 2026-05-06 08:25 | 40.28546 | -135.57231 | 37640 ft | 490 kts | 90° |
| 2026-05-06 08:26 | 40.27800 | -135.48342 | 37635 ft | 491 kts | 93° |
| 2026-05-06 08:26 | 40.26702 | -135.39505 | 37660 ft | 491 kts | 96° |
| 2026-05-06 08:27 | 40.25257 | -135.30771 | 37669 ft | 491 kts | 99° |
| 2026-05-06 08:27 | 40.23486 | -135.22166 | 37649 ft | 492 kts | 102° |
| 2026-05-06 08:28 | 40.21378 | -135.13622 | 37639 ft | 493 kts | 104° |
| 2026-05-06 08:28 | 40.18957 | -135.05224 | 37647 ft | 493 kts | 107° |
| 2026-05-06 08:29 | 40.16234 | -134.97026 | 37634 ft | 494 kts | 110° |
| 2026-05-06 08:29 | 40.13180 | -134.88967 | 37623 ft | 495 kts | 113° |
| 2026-05-06 08:30 | 40.09796 | -134.81107 | 37556 ft | 497 kts | 116° |
| 2026-05-06 08:30 | 40.06063 | -134.73466 | 37545 ft | 498 kts | 120° |
| 2026-05-06 08:31 | 40.02012 | -134.66138 | 37606 ft | 498 kts | 123° |
| 2026-05-06 08:31 | 39.97689 | -134.59152 | 37607 ft | 498 kts | 126° |
| 2026-05-06 08:32 | 39.93049 | -134.52431 | 37543 ft | 499 kts | 129° |
| 2026-05-06 08:32 | 39.88107 | -134.46036 | 37559 ft | 499 kts | 133° |
| 2026-05-06 08:33 | 39.82974 | -134.40056 | 37715 ft | 495 kts | 136° |
| 2026-05-06 08:33 | 39.77604 | -134.34443 | 37690 ft | 496 kts | 140° |
| 2026-05-06 08:34 | 39.69120 | -134.26606 | 37564 ft | 498 kts | 143° |
| 2026-05-06 08:35 | 39.63293 | -134.21802 | 37684 ft | 495 kts | 146° |
| 2026-05-06 08:35 | 39.57309 | -134.17388 | 37677 ft | 495 kts | 149° |
| 2026-05-06 08:36 | 39.51215 | -134.13367 | 37676 ft | 494 kts | 152° |
| 2026-05-06 08:36 | 39.44939 | -134.09749 | 37697 ft | 493 kts | 155° |
| 2026-05-06 08:37 | 39.38515 | -134.06591 | 37635 ft | 493 kts | 158° |
| 2026-05-06 08:37 | 39.31960 | -134.03809 | 37454 ft | 497 kts | 161° |
| 2026-05-06 08:38 | 39.25293 | -134.01440 | 37458 ft | 496 kts | 164° |
| 2026-05-06 08:38 | 39.21978 | -134.00451 | 37595 ft | 493 kts | 166° |
| 2026-05-06 08:38 | 39.18626 | -133.99584 | 37781 ft | 488 kts | 168° |
| 2026-05-06 08:38 | 39.15288 | -133.98854 | 37884 ft | 485 kts | 169° |
| 2026-05-06 08:39 | 39.11937 | -133.98243 | 37820 ft | 487 kts | 171° |
| 2026-05-06 08:39 | 39.08557 | -133.97740 | 37569 ft | 492 kts | 172° |
| 2026-05-06 08:39 | 39.05117 | -133.97334 | 37284 ft | 498 kts | 174° |
| 2026-05-06 08:40 | 38.98222 | -133.96907 | 37408 ft | 493 kts | 178° |
| 2026-05-06 08:40 | 38.94809 | -133.96931 | 37732 ft | 485 kts | 180° |
| 2026-05-06 08:40 | 38.91492 | -133.97104 | 37937 ft | 481 kts | 181° |
| 2026-05-06 08:41 | 38.84809 | -133.97807 | 37686 ft | 486 kts | 184° |
| 2026-05-06 08:41 | 38.81427 | -133.98309 | 37451 ft | 490 kts | 186° |
| 2026-05-06 08:41 | 38.78044 | -133.98921 | 37376 ft | 491 kts | 187° |
| 2026-05-06 08:41 | 38.74689 | -133.99658 | 37484 ft | 487 kts | 189° |
| 2026-05-06 08:42 | 38.71382 | -134.00529 | 37687 ft | 482 kts | 191° |
| 2026-05-06 08:42 | 38.64891 | -134.02627 | 37693 ft | 482 kts | 194° |
| 2026-05-06 08:42 | 38.61691 | -134.03815 | 37485 ft | 486 kts | 195° |
| 2026-05-06 08:43 | 38.58452 | -134.05120 | 37333 ft | 489 kts | 197° |
| 2026-05-06 08:43 | 38.52078 | -134.08074 | 37560 ft | 482 kts | 200° |
| 2026-05-06 08:43 | 38.48989 | -134.09706 | 37685 ft | 479 kts | 202° |
| 2026-05-06 08:44 | 38.45934 | -134.11435 | 37670 ft | 479 kts | 203° |
| 2026-05-06 08:44 | 38.42907 | -134.13249 | 37526 ft | 482 kts | 204° |
| 2026-05-06 08:44 | 38.39887 | -134.15153 | 37360 ft | 486 kts | 205° |
| 2026-05-06 08:45 | 38.33908 | -134.19244 | 37294 ft | 486 kts | 208° |
| 2026-05-06 08:45 | 38.28192 | -134.23671 | 37508 ft | 481 kts | 212° |
| 2026-05-06 08:46 | 38.22689 | -134.28487 | 37547 ft | 479 kts | 215° |
| 2026-05-06 08:46 | 38.19997 | -134.31020 | 37432 ft | 482 kts | 216° |
| 2026-05-06 08:46 | 38.17327 | -134.33621 | 37297 ft | 484 kts | 217° |
| 2026-05-06 08:47 | 38.12088 | -134.39026 | 37272 ft | 484 kts | 219° |
| 2026-05-06 08:47 | 38.07080 | -134.44687 | 37473 ft | 479 kts | 222° |
| 2026-05-06 08:48 | 38.02340 | -134.50531 | 37467 ft | 479 kts | 225° |
| 2026-05-06 08:48 | 38.00019 | -134.53560 | 37365 ft | 481 kts | 226° |
| 2026-05-06 08:48 | 37.97729 | -134.56667 | 37280 ft | 482 kts | 227° |
| 2026-05-06 08:49 | 37.93309 | -134.63061 | 37336 ft | 480 kts | 230° |
| 2026-05-06 08:49 | 37.91202 | -134.66325 | 37438 ft | 477 kts | 231° |
| 2026-05-06 08:49 | 37.89169 | -134.69629 | 37512 ft | 475 kts | 232° |
| 2026-05-06 08:50 | 37.85306 | -134.76373 | 37433 ft | 476 kts | 234° |
| 2026-05-06 08:50 | 37.81639 | -134.83379 | 37313 ft | 478 kts | 237° |
| 2026-05-06 08:51 | 37.78232 | -134.90561 | 37462 ft | 473 kts | 240° |
| 2026-05-06 08:51 | 37.75131 | -134.97881 | 37538 ft | 471 kts | 243° |
| 2026-05-06 08:52 | 37.72305 | -135.05334 | 37418 ft | 472 kts | 245° |
| 2026-05-06 08:52 | 37.69751 | -135.12957 | 37469 ft | 470 kts | 248° |
| 2026-05-06 08:53 | 37.67509 | -135.20708 | 37545 ft | 467 kts | 251° |
| 2026-05-06 08:53 | 37.65575 | -135.28541 | 37492 ft | 467 kts | 253° |
| 2026-05-06 08:54 | 37.63948 | -135.36429 | 37501 ft | 466 kts | 256° |
| 2026-05-06 08:54 | 37.62628 | -135.44433 | 37554 ft | 464 kts | 259° |
| 2026-05-06 08:55 | 37.61629 | -135.52462 | 37531 ft | 463 kts | 262° |
| 2026-05-06 08:55 | 37.60935 | -135.60543 | 37473 ft | 464 kts | 264° |
| 2026-05-06 08:56 | 37.60565 | -135.68660 | 37489 ft | 462 kts | 267° |
| 2026-05-06 08:56 | 37.60537 | -135.76759 | 37517 ft | 461 kts | 270° |
| 2026-05-06 08:57 | 37.60848 | -135.84786 | 37480 ft | 461 kts | 273° |
| 2026-05-06 08:57 | 37.61493 | -135.92831 | 37456 ft | 461 kts | 276° |
| 2026-05-06 08:58 | 37.62468 | -136.00804 | 37482 ft | 459 kts | 278° |
| 2026-05-06 08:58 | 37.63787 | -136.08670 | 37535 ft | 457 kts | 281° |
| 2026-05-06 08:59 | 37.65456 | -136.16416 | 37513 ft | 458 kts | 284° |
| 2026-05-06 08:59 | 37.67462 | -136.24068 | 37443 ft | 459 kts | 287° |
| 2026-05-06 09:00 | 37.69770 | -136.31521 | 37473 ft | 458 kts | 290° |
| 2026-05-06 09:00 | 37.72432 | -136.38825 | 37506 ft | 457 kts | 294° |
| 2026-05-06 09:01 | 37.75452 | -136.45937 | 37423 ft | 459 kts | 297° |
| 2026-05-06 09:01 | 37.78798 | -136.52830 | 37412 ft | 459 kts | 300° |
| 2026-05-06 09:02 | 37.81820 | -136.58352 | 37441 ft | 459 kts | 302° |
| 2026-05-06 09:02 | 37.86411 | -136.65769 | 37349 ft | 461 kts | 306° |
| 2026-05-06 09:03 | 37.89936 | -136.70844 | 37340 ft | 462 kts | 309° |
| 2026-05-06 09:03 | 37.94432 | -136.76660 | 37402 ft | 461 kts | 312° |
| 2026-05-06 09:04 | 37.99198 | -136.82124 | 37388 ft | 463 kts | 315° |
| 2026-05-06 09:04 | 38.04226 | -136.87272 | 37331 ft | 465 kts | 319° |
| 2026-05-06 09:05 | 38.09470 | -136.92088 | 37327 ft | 465 kts | 321° |
| 2026-05-06 09:05 | 38.14875 | -136.96505 | 37374 ft | 465 kts | 324° |
| 2026-05-06 09:06 | 38.20511 | -137.00573 | 37397 ft | 465 kts | 328° |
| 2026-05-06 09:06 | 38.26329 | -137.04265 | 37273 ft | 469 kts | 330° |
| 2026-05-06 09:07 | 38.32336 | -137.07567 | 37269 ft | 470 kts | 334° |
| 2026-05-06 09:07 | 38.38445 | -137.10380 | 37375 ft | 469 kts | 337° |
| 2026-05-06 09:08 | 38.44716 | -137.12729 | 37339 ft | 471 kts | 341° |
| 2026-05-06 09:08 | 38.51121 | -137.14616 | 37252 ft | 474 kts | 344° |
| 2026-05-06 09:09 | 38.57639 | -137.16000 | 37314 ft | 473 kts | 348° |
| 2026-05-06 09:09 | 38.64187 | -137.16847 | 37411 ft | 472 kts | 351° |
| 2026-05-06 09:10 | 38.70734 | -137.17153 | 37364 ft | 475 kts | 355° |
| 2026-05-06 09:10 | 38.77372 | -137.16910 | 37296 ft | 477 kts | 359° |
| 2026-05-06 09:11 | 38.83987 | -137.16096 | 37331 ft | 478 kts | 3° |
| 2026-05-06 09:11 | 38.90524 | -137.14693 | 37382 ft | 478 kts | 7° |
| 2026-05-06 09:12 | 38.97004 | -137.12692 | 37372 ft | 479 kts | 11° |
| 2026-05-06 09:12 | 39.03380 | -137.10097 | 37371 ft | 481 kts | 15° |
| 2026-05-06 09:13 | 39.09599 | -137.06918 | 37367 ft | 482 kts | 19° |
| 2026-05-06 09:13 | 39.15655 | -137.03162 | 37387 ft | 482 kts | 24° |
| 2026-05-06 09:14 | 39.21440 | -136.98877 | 37479 ft | 481 kts | 28° |
| 2026-05-06 09:14 | 39.26990 | -136.94037 | 37470 ft | 482 kts | 32° |
| 2026-05-06 09:15 | 39.32272 | -136.88667 | 37468 ft | 483 kts | 36° |
| 2026-05-06 09:15 | 39.37220 | -136.82793 | 37596 ft | 481 kts | 40° |
| 2026-05-06 09:16 | 39.41768 | -136.76511 | 37592 ft | 482 kts | 45° |
| 2026-05-06 09:16 | 39.46001 | -136.69738 | 37503 ft | 484 kts | 49° |
| 2026-05-06 09:17 | 39.49829 | -136.62551 | 37510 ft | 485 kts | 53° |
| 2026-05-06 09:17 | 39.53198 | -136.55007 | 37583 ft | 484 kts | 58° |
| 2026-05-06 09:18 | 39.56095 | -136.47180 | 37621 ft | 483 kts | 62° |
| 2026-05-06 09:18 | 39.58537 | -136.39073 | 37639 ft | 484 kts | 66° |
| 2026-05-06 09:19 | 39.60545 | -136.30704 | 37581 ft | 486 kts | 70° |
| 2026-05-06 09:19 | 39.62106 | -136.22173 | 37573 ft | 486 kts | 74° |
| 2026-05-06 09:20 | 39.63196 | -136.13523 | 37631 ft | 485 kts | 78° |
| 2026-05-06 09:20 | 39.63828 | -136.04797 | 37613 ft | 486 kts | 82° |
| 2026-05-06 09:21 | 39.64030 | -135.96055 | 37539 ft | 488 kts | 86° |
| 2026-05-06 09:21 | 39.63811 | -135.87234 | 37553 ft | 489 kts | 89° |
| 2026-05-06 09:22 | 39.63158 | -135.78469 | 37653 ft | 487 kts | 92° |
| 2026-05-06 09:22 | 39.62078 | -135.69785 | 37628 ft | 488 kts | 96° |
| 2026-05-06 09:23 | 39.60593 | -135.61153 | 37526 ft | 491 kts | 99° |
| 2026-05-06 09:23 | 39.58708 | -135.52632 | 37550 ft | 491 kts | 103° |
| 2026-05-06 09:24 | 39.56428 | -135.44349 | 37586 ft | 491 kts | 107° |
| 2026-05-06 09:24 | 39.53729 | -135.36178 | 37528 ft | 493 kts | 110° |
| 2026-05-06 09:25 | 39.50651 | -135.28233 | 37494 ft | 494 kts | 114° |
| 2026-05-06 09:25 | 39.47171 | -135.20555 | 37481 ft | 495 kts | 118° |
| 2026-05-06 09:26 | 39.43300 | -135.13239 | 37454 ft | 496 kts | 122° |
| 2026-05-06 09:26 | 39.39013 | -135.06231 | 37473 ft | 497 kts | 126° |
| 2026-05-06 09:27 | 39.34361 | -134.99608 | 37421 ft | 498 kts | 130° |
| 2026-05-06 09:27 | 39.29362 | -134.93385 | 37374 ft | 500 kts | 134° |
| 2026-05-06 09:28 | 39.24024 | -134.87608 | 37421 ft | 499 kts | 139° |
| 2026-05-06 09:28 | 39.18464 | -134.82380 | 37454 ft | 499 kts | 142° |
| 2026-05-06 09:29 | 39.12584 | -134.77592 | 37400 ft | 500 kts | 146° |
| 2026-05-06 09:29 | 39.06453 | -134.73318 | 37373 ft | 501 kts | 150° |
| 2026-05-06 09:30 | 39.00102 | -134.69607 | 37399 ft | 500 kts | 155° |
| 2026-05-06 09:30 | 38.93610 | -134.66507 | 37396 ft | 500 kts | 159° |
| 2026-05-06 09:31 | 38.86933 | -134.63956 | 37419 ft | 499 kts | 163° |
| 2026-05-06 09:31 | 38.80164 | -134.61991 | 37457 ft | 498 kts | 167° |
| 2026-05-06 09:32 | 38.73299 | -134.60612 | 37381 ft | 499 kts | 171° |
| 2026-05-06 09:32 | 38.66426 | -134.59824 | 37390 ft | 498 kts | 175° |
| 2026-05-06 09:33 | 38.59498 | -134.59658 | 37457 ft | 496 kts | 179° |
| 2026-05-06 09:33 | 38.52607 | -134.60110 | 37411 ft | 496 kts | 183° |
| 2026-05-06 09:34 | 38.45753 | -134.61142 | 37388 ft | 495 kts | 187° |
| 2026-05-06 09:34 | 38.39026 | -134.62742 | 37436 ft | 494 kts | 191° |
| 2026-05-06 09:35 | 38.32358 | -134.64912 | 37405 ft | 493 kts | 195° |
| 2026-05-06 09:35 | 38.25830 | -134.67599 | 37400 ft | 492 kts | 199° |
| 2026-05-06 09:36 | 38.19508 | -134.70764 | 37445 ft | 490 kts | 202° |
| 2026-05-06 09:36 | 38.13332 | -134.74416 | 37423 ft | 489 kts | 206° |
| 2026-05-06 09:37 | 38.07331 | -134.78526 | 37379 ft | 489 kts | 209° |
| 2026-05-06 09:37 | 38.01586 | -134.83044 | 37414 ft | 487 kts | 213° |
| 2026-05-06 09:38 | 37.96074 | -134.87996 | 37460 ft | 485 kts | 217° |
| 2026-05-06 09:38 | 37.90815 | -134.93369 | 37412 ft | 484 kts | 220° |
| 2026-05-06 09:39 | 37.85846 | -134.99114 | 37405 ft | 483 kts | 224° |
| 2026-05-06 09:39 | 37.81220 | -135.05175 | 37467 ft | 480 kts | 227° |
| 2026-05-06 09:40 | 37.76897 | -135.11590 | 37464 ft | 478 kts | 231° |
| 2026-05-06 09:40 | 37.71030 | -135.21742 | 37537 ft | 474 kts | 236° |
| 2026-05-06 09:41 | 37.67542 | -135.28820 | 37478 ft | 474 kts | 239° |
| 2026-05-06 09:41 | 37.64397 | -135.36119 | 37502 ft | 472 kts | 243° |
| 2026-05-06 09:42 | 37.61636 | -135.43558 | 37547 ft | 469 kts | 246° |
| 2026-05-06 09:42 | 37.59217 | -135.51201 | 37524 ft | 469 kts | 249° |
| 2026-05-06 09:43 | 37.57147 | -135.58989 | 37451 ft | 469 kts | 252° |
| 2026-05-06 09:43 | 37.55437 | -135.66905 | 37478 ft | 467 kts | 256° |
| 2026-05-06 09:44 | 37.54101 | -135.74851 | 37521 ft | 465 kts | 259° |
| 2026-05-06 09:44 | 37.53116 | -135.82911 | 37498 ft | 464 kts | 262° |
| 2026-05-06 09:45 | 37.52502 | -135.90998 | 37511 ft | 462 kts | 265° |
| 2026-05-06 09:45 | 37.52273 | -135.99038 | 37506 ft | 462 kts | 268° |
| 2026-05-06 09:46 | 37.52415 | -136.07137 | 37469 ft | 462 kts | 271° |
| 2026-05-06 09:46 | 37.52920 | -136.15195 | 37463 ft | 461 kts | 274° |
| 2026-05-06 09:47 | 37.53789 | -136.23193 | 37488 ft | 460 kts | 277° |
| 2026-05-06 09:47 | 37.55028 | -136.31089 | 37529 ft | 458 kts | 281° |
| 2026-05-06 09:48 | 37.56640 | -136.38798 | 37555 ft | 457 kts | 284° |
| 2026-05-06 09:48 | 37.58625 | -136.46434 | 37505 ft | 458 kts | 287° |
| 2026-05-06 09:49 | 37.60956 | -136.53920 | 37460 ft | 459 kts | 290° |
| 2026-05-06 09:49 | 37.63642 | -136.61232 | 37418 ft | 460 kts | 293° |
| 2026-05-06 09:50 | 37.66671 | -136.68351 | 37415 ft | 460 kts | 296° |
| 2026-05-06 09:50 | 37.69442 | -136.74071 | 37436 ft | 460 kts | 299° |
| 2026-05-06 09:51 | 37.73719 | -136.81792 | 37359 ft | 462 kts | 303° |
| 2026-05-06 09:51 | 37.77038 | -136.87094 | 37302 ft | 464 kts | 306° |
| 2026-05-06 09:52 | 37.81305 | -136.93206 | 37350 ft | 463 kts | 309° |
| 2026-05-06 09:52 | 37.85850 | -136.98984 | 37312 ft | 465 kts | 312° |
| 2026-05-06 09:53 | 37.90689 | -137.04482 | 37192 ft | 468 kts | 315° |
| 2026-05-06 09:53 | 37.95789 | -137.09618 | 37323 ft | 466 kts | 319° |
| 2026-05-06 09:54 | 38.01096 | -137.14309 | 37456 ft | 464 kts | 322° |
| 2026-05-06 09:54 | 38.06609 | -137.18626 | 37323 ft | 468 kts | 325° |
| 2026-05-06 09:55 | 38.12313 | -137.22602 | 37210 ft | 472 kts | 328° |
| 2026-05-06 09:55 | 38.18240 | -137.26220 | 37253 ft | 472 kts | 331° |
| 2026-05-06 09:56 | 38.24305 | -137.29383 | 37355 ft | 470 kts | 335° |
| 2026-05-06 09:56 | 38.30490 | -137.32103 | 37330 ft | 472 kts | 338° |
| 2026-05-06 09:57 | 38.36843 | -137.34428 | 37210 ft | 475 kts | 341° |
| 2026-05-06 09:57 | 38.43255 | -137.36276 | 37266 ft | 475 kts | 344° |
| 2026-05-06 09:58 | 38.49782 | -137.37641 | 37323 ft | 475 kts | 348° |
| 2026-05-06 09:58 | 38.56386 | -137.38539 | 37221 ft | 479 kts | 351° |
| 2026-05-06 09:59 | 38.63068 | -137.38936 | 37212 ft | 480 kts | 355° |
| 2026-05-06 09:59 | 38.69735 | -137.38766 | 37328 ft | 479 kts | 359° |
| 2026-05-06 10:00 | 38.76370 | -137.38017 | 37361 ft | 479 kts | 2° |
| 2026-05-06 10:00 | 38.82971 | -137.36700 | 37284 ft | 482 kts | 6° |
| 2026-05-06 10:01 | 38.89487 | -137.34810 | 37298 ft | 483 kts | 10° |
| 2026-05-06 10:01 | 38.95910 | -137.32314 | 37379 ft | 482 kts | 14° |
| 2026-05-06 10:02 | 39.02185 | -137.29235 | 37350 ft | 484 kts | 18° |
| 2026-05-06 10:02 | 39.08317 | -137.25580 | 37317 ft | 485 kts | 22° |
| 2026-05-06 10:03 | 39.14230 | -137.21363 | 37374 ft | 485 kts | 27° |
| 2026-05-06 10:03 | 39.19863 | -137.16625 | 37405 ft | 485 kts | 31° |
| 2026-05-06 10:04 | 39.25259 | -137.11383 | 37440 ft | 485 kts | 35° |
| 2026-05-06 10:04 | 39.30390 | -137.05687 | 37404 ft | 487 kts | 39° |
| 2026-05-06 10:05 | 39.35227 | -136.99551 | 37410 ft | 487 kts | 42° |
| 2026-05-06 10:05 | 39.39709 | -136.92997 | 37508 ft | 486 kts | 46° |
| 2026-05-06 10:06 | 39.43779 | -136.86082 | 37496 ft | 486 kts | 51° |
| 2026-05-06 10:06 | 39.47470 | -136.78701 | 37448 ft | 488 kts | 55° |
| 2026-05-06 10:07 | 39.50707 | -136.70980 | 37536 ft | 486 kts | 59° |
| 2026-05-06 10:07 | 39.53501 | -136.62998 | 37576 ft | 486 kts | 64° |
| 2026-05-06 10:08 | 39.55888 | -136.54782 | 37502 ft | 488 kts | 67° |
| 2026-05-06 10:08 | 39.57826 | -136.46406 | 37539 ft | 488 kts | 71° |
| 2026-05-06 10:09 | 39.59311 | -136.37834 | 37629 ft | 486 kts | 75° |
| 2026-05-06 10:09 | 39.60340 | -136.29176 | 37610 ft | 487 kts | 79° |
| 2026-05-06 10:10 | 39.60929 | -136.20393 | 37537 ft | 489 kts | 83° |
| 2026-05-06 10:10 | 39.61051 | -136.11626 | 37580 ft | 488 kts | 87° |
| 2026-05-06 10:11 | 39.60702 | -136.02826 | 37609 ft | 488 kts | 91° |
| 2026-05-06 10:11 | 39.59893 | -135.94074 | 37578 ft | 489 kts | 95° |
| 2026-05-06 10:12 | 39.58617 | -135.85410 | 37608 ft | 489 kts | 98° |
| 2026-05-06 10:12 | 39.56876 | -135.76890 | 37629 ft | 489 kts | 103° |
| 2026-05-06 10:13 | 39.54699 | -135.68566 | 37584 ft | 490 kts | 106° |
| 2026-05-06 10:13 | 39.52064 | -135.60388 | 37529 ft | 492 kts | 110° |
| 2026-05-06 10:14 | 39.49009 | -135.52523 | 37533 ft | 492 kts | 114° |
| 2026-05-06 10:14 | 39.45520 | -135.44867 | 37549 ft | 492 kts | 118° |
| 2026-05-06 10:15 | 39.41649 | -135.37517 | 37496 ft | 494 kts | 122° |
| 2026-05-06 10:15 | 39.37437 | -135.30545 | 37403 ft | 497 kts | 126° |
| 2026-05-06 10:16 | 39.32836 | -135.23894 | 37463 ft | 496 kts | 130° |
| 2026-05-06 10:16 | 39.27908 | -135.17703 | 37510 ft | 495 kts | 134° |
| 2026-05-06 10:17 | 39.22625 | -135.11904 | 37367 ft | 499 kts | 138° |
| 2026-05-06 10:17 | 39.17041 | -135.06560 | 37353 ft | 499 kts | 142° |
| 2026-05-06 10:18 | 39.11199 | -135.01745 | 37426 ft | 498 kts | 146° |
| 2026-05-06 10:18 | 39.05151 | -134.97477 | 37390 ft | 499 kts | 150° |
| 2026-05-06 10:19 | 38.98833 | -134.93697 | 37333 ft | 501 kts | 154° |
| 2026-05-06 10:19 | 38.92337 | -134.90492 | 37382 ft | 499 kts | 158° |
| 2026-05-06 10:20 | 38.85737 | -134.87911 | 37457 ft | 497 kts | 162° |
| 2026-05-06 10:20 | 38.78979 | -134.85901 | 37375 ft | 499 kts | 166° |
| 2026-05-06 10:21 | 38.72096 | -134.84457 | 37293 ft | 501 kts | 170° |
| 2026-05-06 10:21 | 38.65177 | -134.83645 | 37390 ft | 497 kts | 175° |
| 2026-05-06 10:22 | 38.58269 | -134.83482 | 37482 ft | 495 kts | 179° |
| 2026-05-06 10:22 | 38.51403 | -134.83932 | 37344 ft | 497 kts | 183° |
| 2026-05-06 10:23 | 38.44525 | -134.85006 | 37308 ft | 497 kts | 188° |
| 2026-05-06 10:23 | 38.37769 | -134.86722 | 37445 ft | 493 kts | 192° |
| 2026-05-06 10:24 | 38.31204 | -134.89049 | 37440 ft | 492 kts | 197° |
| 2026-05-06 10:24 | 38.24744 | -134.91992 | 37332 ft | 493 kts | 201° |
| 2026-05-06 10:25 | 38.18474 | -134.95515 | 37365 ft | 491 kts | 205° |
| 2026-05-06 10:25 | 38.12468 | -134.99579 | 37459 ft | 487 kts | 210° |
| 2026-05-06 10:26 | 38.06718 | -135.04157 | 37452 ft | 486 kts | 213° |
| 2026-05-06 10:26 | 38.01298 | -135.09172 | 37377 ft | 486 kts | 218° |
| 2026-05-06 10:27 | 37.96130 | -135.14685 | 37424 ft | 483 kts | 222° |
| 2026-05-06 10:27 | 37.91327 | -135.20588 | 37556 ft | 478 kts | 226° |
| 2026-05-06 10:28 | 37.86894 | -135.26811 | 37479 ft | 478 kts | 229° |
| 2026-05-06 10:28 | 37.82753 | -135.33426 | 37416 ft | 478 kts | 233° |
| 2026-05-06 10:29 | 37.79002 | -135.40342 | 37521 ft | 474 kts | 237° |
| 2026-05-06 10:29 | 37.75658 | -135.47505 | 37537 ft | 472 kts | 241° |
| 2026-05-06 10:30 | 37.72691 | -135.54894 | 37511 ft | 471 kts | 244° |
| 2026-05-06 10:30 | 37.70111 | -135.62442 | 37503 ft | 470 kts | 248° |
| 2026-05-06 10:31 | 37.67899 | -135.70184 | 37519 ft | 468 kts | 251° |
| 2026-05-06 10:31 | 37.66058 | -135.78077 | 37498 ft | 468 kts | 254° |
| 2026-05-06 10:32 | 37.64590 | -135.86066 | 37477 ft | 467 kts | 258° |
| 2026-05-06 10:32 | 37.63494 | -135.94141 | 37497 ft | 465 kts | 261° |
| 2026-05-06 10:33 | 37.62764 | -136.02246 | 37496 ft | 464 kts | 264° |
| 2026-05-06 10:33 | 37.62404 | -136.10322 | 37535 ft | 462 kts | 267° |
| 2026-05-06 10:34 | 37.62429 | -136.18426 | 37562 ft | 461 kts | 270° |
| 2026-05-06 10:34 | 37.62823 | -136.26503 | 37501 ft | 462 kts | 273° |
| 2026-05-06 10:35 | 37.63577 | -136.34561 | 37467 ft | 462 kts | 276° |
| 2026-05-06 10:35 | 37.64684 | -136.42474 | 37514 ft | 460 kts | 279° |
| 2026-05-06 10:36 | 37.66156 | -136.50321 | 37510 ft | 460 kts | 282° |
| 2026-05-06 10:36 | 37.67997 | -136.58097 | 37446 ft | 461 kts | 285° |
| 2026-05-06 10:37 | 37.70191 | -136.65700 | 37491 ft | 460 kts | 288° |
| 2026-05-06 10:37 | 37.72699 | -136.73080 | 37501 ft | 460 kts | 291° |
| 2026-05-06 10:38 | 37.75040 | -136.79136 | 37398 ft | 462 kts | 294° |
| 2026-05-06 10:38 | 37.78667 | -136.87441 | 37335 ft | 463 kts | 297° |
| 2026-05-06 10:39 | 37.81499 | -136.93194 | 37447 ft | 461 kts | 299° |
| 2026-05-06 10:39 | 37.85156 | -136.99878 | 37350 ft | 464 kts | 302° |
| 2026-05-06 10:40 | 37.89110 | -137.06403 | 37216 ft | 468 kts | 305° |
| 2026-05-06 10:40 | 37.93331 | -137.12661 | 37321 ft | 466 kts | 308° |
| 2026-05-06 10:41 | 37.97800 | -137.18573 | 37452 ft | 464 kts | 311° |
| 2026-05-06 10:41 | 38.02543 | -137.24151 | 37398 ft | 466 kts | 314° |
| 2026-05-06 10:42 | 38.07511 | -137.29388 | 37299 ft | 469 kts | 317° |
| 2026-05-06 10:42 | 38.12755 | -137.34348 | 37253 ft | 470 kts | 320° |
| 2026-05-06 10:43 | 38.18220 | -137.38943 | 37331 ft | 469 kts | 323° |
| 2026-05-06 10:44 | 38.26702 | -137.45118 | 37248 ft | 473 kts | 328° |
| 2026-05-06 10:44 | 38.32618 | -137.48863 | 37182 ft | 475 kts | 330° |
| 2026-05-06 10:45 | 38.38667 | -137.52183 | 37374 ft | 471 kts | 334° |
| 2026-05-06 10:45 | 38.44833 | -137.55086 | 37344 ft | 473 kts | 336° |
| 2026-05-06 10:46 | 38.51152 | -137.57634 | 37178 ft | 478 kts | 339° |
| 2026-05-06 10:46 | 38.57587 | -137.59766 | 37255 ft | 477 kts | 342° |
| 2026-05-06 10:47 | 38.64039 | -137.61411 | 37405 ft | 475 kts | 346° |
| 2026-05-06 10:47 | 38.70601 | -137.62632 | 37325 ft | 477 kts | 348° |
| 2026-05-06 10:48 | 38.77237 | -137.63457 | 37246 ft | 480 kts | 351° |
| 2026-05-06 10:48 | 38.83884 | -137.63856 | 37323 ft | 479 kts | 354° |
| 2026-05-06 10:49 | 38.90546 | -137.63805 | 37413 ft | 478 kts | 357° |
| 2026-05-06 10:49 | 38.97212 | -137.63325 | 37339 ft | 481 kts | 0° |
| 2026-05-06 10:50 | 39.03882 | -137.62428 | 37279 ft | 482 kts | 3° |
| 2026-05-06 10:50 | 39.10518 | -137.61092 | 37369 ft | 481 kts | 6° |
| 2026-05-06 10:51 | 39.17075 | -137.59305 | 37422 ft | 481 kts | 9° |
| 2026-05-06 10:51 | 39.23521 | -137.57090 | 37360 ft | 483 kts | 12° |
| 2026-05-06 10:52 | 39.29942 | -137.54422 | 37308 ft | 485 kts | 15° |
| 2026-05-06 10:52 | 39.36249 | -137.51314 | 37375 ft | 484 kts | 18° |
| 2026-05-06 10:53 | 39.42397 | -137.47787 | 37459 ft | 483 kts | 21° |
| 2026-05-06 10:53 | 39.48356 | -137.43855 | 37395 ft | 485 kts | 24° |
| 2026-05-06 10:54 | 39.53859 | -137.39753 | 37365 ft | 486 kts | 27° |
| 2026-05-06 10:54 | 39.59544 | -137.34979 | 37409 ft | 486 kts | 31° |
| 2026-05-06 10:55 | 39.64993 | -137.29787 | 37411 ft | 486 kts | 34° |
| 2026-05-06 10:55 | 39.70203 | -137.24164 | 37395 ft | 487 kts | 37° |
| 2026-05-06 10:56 | 39.75113 | -137.18155 | 37410 ft | 487 kts | 41° |
| 2026-05-06 10:56 | 39.79774 | -137.11731 | 37440 ft | 487 kts | 44° |
| 2026-05-06 10:57 | 39.84145 | -137.04990 | 37462 ft | 487 kts | 47° |
| 2026-05-06 10:57 | 39.87664 | -136.98948 | 37452 ft | 488 kts | 50° |